RYS6120 EDDH-EPGD
Flight info
| Callsign | RYS6120 |
|---|---|
| Flight time | 1h 5m |
| Altitude | 35000 |
| Route | RAMAR6G/33 RAMAR L23 GEVNI DCT BINKA DCT LUXAL L730 KOSEX |
| Aircraft | B738/M-SDE2E3FGHIRWXY/LB1 |
Departure
| Time | 2026-05-06 17:42 |
|---|---|
| Airport | Hamburg Helmut Schmidt Airport (EDDH) |
Arrival
| Time | 2026-05-06 18:48 |
|---|---|
| Airport | Gdańsk Lech Wałęsa Airport (EPGD) |
| Time | Latitude | Longitude | Altitude | Speed | Heading |
|---|---|---|---|---|---|
| 2026-05-06 17:10 | 53.62454 | 10.00462 | 42 ft | 0 kts | 65° |
| 2026-05-06 17:37 | 53.62457 | 10.00471 | 41 ft | 2 kts | 56° |
| 2026-05-06 17:37 | 53.62501 | 10.00492 | 42 ft | 9 kts | 13° |
| 2026-05-06 17:37 | 53.62556 | 10.00458 | 42 ft | 10 kts | 304° |
| 2026-05-06 17:38 | 53.62589 | 10.00286 | 42 ft | 13 kts | 269° |
| 2026-05-06 17:38 | 53.62578 | 10.00235 | 42 ft | 5 kts | 247° |
| 2026-05-06 17:38 | 53.62575 | 10.00224 | 42 ft | 0 kts | 245° |
| 2026-05-06 17:38 | 53.62569 | 10.00201 | 42 ft | 0 kts | 244° |
| 2026-05-06 17:39 | 53.62568 | 10.00199 | 42 ft | 0 kts | 241° |
| 2026-05-06 17:40 | 53.62567 | 10.00198 | 42 ft | 1 kts | 241° |
| 2026-05-06 17:40 | 53.62557 | 10.00050 | 41 ft | 18 kts | 300° |
| 2026-05-06 17:40 | 53.62595 | 9.99983 | 43 ft | 1 kts | 325° |
| 2026-05-06 17:41 | 53.62597 | 9.99981 | 43 ft | 0 kts | 327° |
| 2026-05-06 17:41 | 53.62597 | 9.99980 | 43 ft | 0 kts | 327° |
| 2026-05-06 17:42 | 53.62758 | 9.99840 | 46 ft | 68 kts | 334° |
| 2026-05-06 17:42 | 53.63425 | 9.99269 | 50 ft | 143 kts | 332° |
| 2026-05-06 17:42 | 53.64463 | 9.98362 | 338 ft | 179 kts | 334° |
| 2026-05-06 17:42 | 53.65584 | 9.97300 | 1053 ft | 195 kts | 335° |
| 2026-05-06 17:43 | 53.66856 | 9.96216 | 1846 ft | 211 kts | 338° |
| 2026-05-06 17:43 | 53.68198 | 9.95142 | 2840 ft | 215 kts | 344° |
| 2026-05-06 17:43 | 53.69689 | 9.94562 | 3564 ft | 236 kts | 1° |
| 2026-05-06 17:43 | 53.71342 | 9.94634 | 4470 ft | 246 kts | 5° |
| 2026-05-06 17:44 | 53.73101 | 9.95381 | 4740 ft | 276 kts | 31° |
| 2026-05-06 17:44 | 53.74461 | 9.97605 | 5929 ft | 269 kts | 59° |
| 2026-05-06 17:44 | 53.75320 | 10.00351 | 7301 ft | 263 kts | 64° |
| 2026-05-06 17:44 | 53.76081 | 10.03180 | 8291 ft | 270 kts | 65° |
| 2026-05-06 17:45 | 53.76868 | 10.06155 | 9042 ft | 288 kts | 64° |
| 2026-05-06 17:45 | 53.77752 | 10.09383 | 9377 ft | 317 kts | 63° |
| 2026-05-06 17:45 | 53.78808 | 10.12991 | 8652 ft | 373 kts | 59° |
| 2026-05-06 17:45 | 53.80089 | 10.16951 | 8905 ft | 389 kts | 60° |
| 2026-05-06 17:46 | 53.81382 | 10.20872 | 8901 ft | 374 kts | 63° |
| 2026-05-06 17:46 | 53.82433 | 10.24761 | 8885 ft | 352 kts | 65° |
| 2026-05-06 17:46 | 53.83366 | 10.28411 | 8886 ft | 331 kts | 65° |
| 2026-05-06 17:46 | 53.84221 | 10.31915 | 8880 ft | 313 kts | 70° |
| 2026-05-06 17:47 | 53.84566 | 10.35441 | 8886 ft | 297 kts | 88° |
| 2026-05-06 17:47 | 53.84291 | 10.38816 | 8884 ft | 283 kts | 105° |
| 2026-05-06 17:47 | 53.83588 | 10.41873 | 8886 ft | 280 kts | 110° |
| 2026-05-06 17:47 | 53.82866 | 10.44971 | 8887 ft | 283 kts | 109° |
| 2026-05-06 17:48 | 53.82151 | 10.48060 | 8882 ft | 280 kts | 108° |
| 2026-05-06 17:48 | 53.81435 | 10.51140 | 8885 ft | 281 kts | 110° |
| 2026-05-06 17:48 | 53.80919 | 10.54287 | 8884 ft | 277 kts | 91° |
| 2026-05-06 17:48 | 53.81047 | 10.57490 | 8886 ft | 277 kts | 81° |
| 2026-05-06 17:49 | 53.81337 | 10.60712 | 8883 ft | 276 kts | 79° |
| 2026-05-06 17:49 | 53.81642 | 10.63911 | 8885 ft | 275 kts | 79° |
| 2026-05-06 17:49 | 53.81925 | 10.67118 | 8882 ft | 275 kts | 81° |
| 2026-05-06 17:49 | 53.82186 | 10.70325 | 8884 ft | 276 kts | 81° |
| 2026-05-06 17:50 | 53.82434 | 10.73556 | 8888 ft | 276 kts | 81° |
| 2026-05-06 17:50 | 53.82674 | 10.76778 | 8884 ft | 275 kts | 82° |
| 2026-05-06 17:50 | 53.82906 | 10.79939 | 8885 ft | 275 kts | 82° |
| 2026-05-06 17:50 | 53.83143 | 10.83184 | 8883 ft | 276 kts | 82° |
| 2026-05-06 17:51 | 53.83377 | 10.86407 | 8884 ft | 276 kts | 82° |
| 2026-05-06 17:51 | 53.83611 | 10.89632 | 8883 ft | 275 kts | 82° |
| 2026-05-06 17:51 | 53.83844 | 10.92857 | 8887 ft | 277 kts | 82° |
| 2026-05-06 17:51 | 53.84077 | 10.96098 | 8883 ft | 277 kts | 82° |
| 2026-05-06 17:52 | 53.84308 | 10.99337 | 8886 ft | 276 kts | 82° |
| 2026-05-06 17:52 | 53.84538 | 11.02576 | 8928 ft | 277 kts | 82° |
| 2026-05-06 17:52 | 53.84768 | 11.05842 | 9343 ft | 281 kts | 82° |
| 2026-05-06 17:52 | 53.85000 | 11.09134 | 10274 ft | 282 kts | 83° |
| 2026-05-06 17:53 | 53.85236 | 11.12478 | 11044 ft | 290 kts | 84° |
| 2026-05-06 17:53 | 53.85479 | 11.15909 | 11798 ft | 297 kts | 84° |
| 2026-05-06 17:53 | 53.85725 | 11.19423 | 12560 ft | 304 kts | 85° |
| 2026-05-06 17:53 | 53.85971 | 11.22963 | 13318 ft | 309 kts | 85° |
| 2026-05-06 17:54 | 53.86222 | 11.26617 | 14047 ft | 315 kts | 85° |
| 2026-05-06 17:54 | 53.86476 | 11.30327 | 14737 ft | 319 kts | 85° |
| 2026-05-06 17:54 | 53.86733 | 11.34102 | 15430 ft | 324 kts | 85° |
| 2026-05-06 17:54 | 53.86992 | 11.37925 | 16108 ft | 329 kts | 85° |
| 2026-05-06 17:55 | 53.87254 | 11.41803 | 16780 ft | 333 kts | 85° |
| 2026-05-06 17:55 | 53.87517 | 11.45730 | 17431 ft | 338 kts | 85° |
| 2026-05-06 17:55 | 53.87783 | 11.49729 | 18088 ft | 343 kts | 85° |
| 2026-05-06 17:55 | 53.88051 | 11.53776 | 18704 ft | 346 kts | 85° |
| 2026-05-06 17:56 | 53.88319 | 11.57836 | 19355 ft | 348 kts | 85° |
| 2026-05-06 17:56 | 53.88586 | 11.61919 | 19996 ft | 350 kts | 85° |
| 2026-05-06 17:56 | 53.88855 | 11.66045 | 20610 ft | 352 kts | 85° |
| 2026-05-06 17:56 | 53.89121 | 11.70148 | 21212 ft | 355 kts | 85° |
| 2026-05-06 17:57 | 53.89390 | 11.74331 | 21801 ft | 358 kts | 85° |
| 2026-05-06 17:57 | 53.89661 | 11.78541 | 22400 ft | 360 kts | 85° |
| 2026-05-06 17:57 | 53.89935 | 11.82846 | 22777 ft | 364 kts | 85° |
| 2026-05-06 17:57 | 53.90203 | 11.87060 | 22881 ft | 364 kts | 85° |
| 2026-05-06 17:58 | 53.90474 | 11.91332 | 22882 ft | 364 kts | 85° |
| 2026-05-06 17:58 | 53.90743 | 11.95613 | 22884 ft | 363 kts | 85° |
| 2026-05-06 17:58 | 53.91010 | 11.99878 | 22885 ft | 363 kts | 85° |
| 2026-05-06 17:58 | 53.91276 | 12.04171 | 22886 ft | 374 kts | 85° |
| 2026-05-06 17:59 | 53.91553 | 12.08676 | 22885 ft | 393 kts | 85° |
| 2026-05-06 17:59 | 53.91844 | 12.13401 | 22879 ft | 411 kts | 82° |
| 2026-05-06 17:59 | 53.92182 | 12.18214 | 22885 ft | 418 kts | 85° |
| 2026-05-06 17:59 | 53.92494 | 12.23100 | 22885 ft | 415 kts | 85° |
| 2026-05-06 18:00 | 53.92786 | 12.27965 | 22886 ft | 415 kts | 86° |
| 2026-05-06 18:00 | 53.93062 | 12.32850 | 22885 ft | 415 kts | 85° |
| 2026-05-06 18:00 | 53.93348 | 12.37734 | 22887 ft | 416 kts | 85° |
| 2026-05-06 18:00 | 53.93629 | 12.42625 | 22885 ft | 416 kts | 86° |
| 2026-05-06 18:01 | 53.93901 | 12.47519 | 22886 ft | 415 kts | 86° |
| 2026-05-06 18:01 | 53.94080 | 12.50760 | 22885 ft | 415 kts | 86° |
| 2026-05-06 18:01 | 53.94356 | 12.55636 | 22890 ft | 416 kts | 86° |
| 2026-05-06 18:01 | 53.94631 | 12.60535 | 22932 ft | 418 kts | 86° |
| 2026-05-06 18:02 | 53.94996 | 12.67041 | 23438 ft | 417 kts | 86° |
| 2026-05-06 18:02 | 53.95264 | 12.71950 | 23929 ft | 419 kts | 88° |
| 2026-05-06 18:02 | 53.95422 | 12.75298 | 24268 ft | 420 kts | 86° |
| 2026-05-06 18:02 | 53.95720 | 12.80180 | 24768 ft | 422 kts | 85° |
| 2026-05-06 18:03 | 53.96037 | 12.85138 | 25284 ft | 423 kts | 85° |
| 2026-05-06 18:03 | 53.96344 | 12.90120 | 25813 ft | 424 kts | 86° |
| 2026-05-06 18:03 | 53.96635 | 12.95096 | 26353 ft | 424 kts | 86° |
| 2026-05-06 18:03 | 53.96915 | 13.00090 | 26888 ft | 423 kts | 86° |
| 2026-05-06 18:04 | 53.97185 | 13.05060 | 27443 ft | 422 kts | 87° |
| 2026-05-06 18:04 | 53.97451 | 13.10042 | 27869 ft | 425 kts | 87° |
| 2026-05-06 18:04 | 53.97715 | 13.15060 | 28326 ft | 426 kts | 87° |
| 2026-05-06 18:04 | 53.97973 | 13.20007 | 28791 ft | 426 kts | 87° |
| 2026-05-06 18:05 | 53.98233 | 13.25027 | 29269 ft | 426 kts | 87° |
| 2026-05-06 18:05 | 53.98492 | 13.30049 | 29763 ft | 425 kts | 88° |
| 2026-05-06 18:05 | 53.98747 | 13.35052 | 30202 ft | 425 kts | 88° |
| 2026-05-06 18:05 | 53.98999 | 13.40050 | 30622 ft | 424 kts | 88° |
| 2026-05-06 18:06 | 53.99250 | 13.45055 | 31038 ft | 423 kts | 88° |
| 2026-05-06 18:06 | 53.99498 | 13.50037 | 31429 ft | 423 kts | 88° |
| 2026-05-06 18:06 | 53.99740 | 13.54970 | 31692 ft | 426 kts | 88° |
| 2026-05-06 18:06 | 53.99986 | 13.60017 | 31940 ft | 430 kts | 88° |
| 2026-05-06 18:07 | 54.00232 | 13.65110 | 32170 ft | 433 kts | 88° |
| 2026-05-06 18:07 | 54.00477 | 13.70227 | 32402 ft | 436 kts | 88° |
| 2026-05-06 18:07 | 54.00723 | 13.75397 | 32642 ft | 439 kts | 88° |
| 2026-05-06 18:07 | 54.00985 | 13.80604 | 32865 ft | 442 kts | 87° |
| 2026-05-06 18:08 | 54.01250 | 13.85833 | 33084 ft | 445 kts | 88° |
| 2026-05-06 18:08 | 54.01498 | 13.91085 | 33302 ft | 448 kts | 88° |
| 2026-05-06 18:08 | 54.01733 | 13.96379 | 33521 ft | 451 kts | 89° |
| 2026-05-06 18:08 | 54.01960 | 14.01720 | 33746 ft | 453 kts | 89° |
| 2026-05-06 18:09 | 54.02189 | 14.07087 | 33959 ft | 456 kts | 89° |
| 2026-05-06 18:09 | 54.02419 | 14.12406 | 34138 ft | 458 kts | 89° |
| 2026-05-06 18:09 | 54.02654 | 14.17827 | 34323 ft | 460 kts | 89° |
| 2026-05-06 18:09 | 54.02890 | 14.23271 | 34513 ft | 461 kts | 89° |
| 2026-05-06 18:10 | 54.03124 | 14.28708 | 34701 ft | 463 kts | 89° |
| 2026-05-06 18:10 | 54.03358 | 14.34198 | 34864 ft | 466 kts | 89° |
| 2026-05-06 18:10 | 54.03824 | 14.45335 | 34891 ft | 478 kts | 89° |
| 2026-05-06 18:11 | 54.04289 | 14.56684 | 34889 ft | 481 kts | 89° |
| 2026-05-06 18:11 | 54.04746 | 14.68043 | 34891 ft | 481 kts | 89° |
| 2026-05-06 18:12 | 54.05190 | 14.79427 | 34888 ft | 481 kts | 89° |
| 2026-05-06 18:12 | 54.05622 | 14.90767 | 34886 ft | 482 kts | 89° |
| 2026-05-06 18:13 | 54.06045 | 15.02155 | 34885 ft | 482 kts | 89° |
| 2026-05-06 18:13 | 54.06458 | 15.13579 | 34884 ft | 482 kts | 89° |
| 2026-05-06 18:14 | 54.06858 | 15.24919 | 34873 ft | 483 kts | 89° |
| 2026-05-06 18:14 | 54.07058 | 15.30718 | 34678 ft | 483 kts | 90° |
| 2026-05-06 18:14 | 54.07250 | 15.36334 | 34442 ft | 482 kts | 90° |
| 2026-05-06 18:15 | 54.07449 | 15.42032 | 34204 ft | 482 kts | 90° |
| 2026-05-06 18:15 | 54.07639 | 15.47730 | 33973 ft | 482 kts | 90° |
| 2026-05-06 18:15 | 54.07820 | 15.53437 | 33710 ft | 482 kts | 90° |
| 2026-05-06 18:15 | 54.07999 | 15.59159 | 33425 ft | 482 kts | 90° |
| 2026-05-06 18:16 | 54.08177 | 15.64872 | 33154 ft | 483 kts | 90° |
| 2026-05-06 18:16 | 54.08354 | 15.70592 | 32800 ft | 484 kts | 90° |
| 2026-05-06 18:16 | 54.08529 | 15.76337 | 32099 ft | 488 kts | 90° |
| 2026-05-06 18:16 | 54.08703 | 15.82126 | 31204 ft | 491 kts | 90° |
| 2026-05-06 18:17 | 54.08874 | 15.87892 | 30228 ft | 496 kts | 90° |
| 2026-05-06 18:17 | 54.09046 | 15.93752 | 29459 ft | 494 kts | 90° |
| 2026-05-06 18:17 | 54.09215 | 15.99549 | 28986 ft | 485 kts | 90° |
| 2026-05-06 18:17 | 54.09377 | 16.05174 | 28414 ft | 478 kts | 90° |
| 2026-05-06 18:18 | 54.09537 | 16.10918 | 27808 ft | 473 kts | 90° |
| 2026-05-06 18:18 | 54.09690 | 16.16500 | 27216 ft | 467 kts | 90° |
| 2026-05-06 18:18 | 54.09837 | 16.21960 | 26634 ft | 463 kts | 90° |
| 2026-05-06 18:18 | 54.09982 | 16.27478 | 26044 ft | 458 kts | 90° |
| 2026-05-06 18:19 | 54.10122 | 16.32876 | 25475 ft | 454 kts | 91° |
| 2026-05-06 18:19 | 54.10259 | 16.38240 | 24900 ft | 450 kts | 91° |
| 2026-05-06 18:19 | 54.10390 | 16.43490 | 24336 ft | 447 kts | 91° |
| 2026-05-06 18:19 | 54.10519 | 16.48766 | 23733 ft | 445 kts | 90° |
| 2026-05-06 18:20 | 54.10646 | 16.54009 | 23101 ft | 442 kts | 90° |
| 2026-05-06 18:20 | 54.10770 | 16.59223 | 22577 ft | 436 kts | 91° |
| 2026-05-06 18:20 | 54.10891 | 16.64355 | 22019 ft | 431 kts | 91° |
| 2026-05-06 18:20 | 54.11007 | 16.69435 | 21459 ft | 426 kts | 90° |
| 2026-05-06 18:21 | 54.11120 | 16.74454 | 20907 ft | 422 kts | 90° |
| 2026-05-06 18:21 | 54.11230 | 16.79435 | 20356 ft | 418 kts | 90° |
| 2026-05-06 18:21 | 54.11336 | 16.84370 | 19812 ft | 415 kts | 90° |
| 2026-05-06 18:21 | 54.11441 | 16.89283 | 19263 ft | 412 kts | 90° |
| 2026-05-06 18:22 | 54.11542 | 16.94143 | 18717 ft | 409 kts | 90° |
| 2026-05-06 18:22 | 54.11640 | 16.98991 | 18175 ft | 407 kts | 90° |
| 2026-05-06 18:22 | 54.11736 | 17.03747 | 17597 ft | 404 kts | 90° |
| 2026-05-06 18:22 | 54.11830 | 17.08506 | 17070 ft | 400 kts | 90° |
| 2026-05-06 18:23 | 54.11921 | 17.13232 | 16534 ft | 397 kts | 90° |
| 2026-05-06 18:23 | 54.12010 | 17.17916 | 16006 ft | 394 kts | 90° |
| 2026-05-06 18:23 | 54.12096 | 17.22557 | 15484 ft | 391 kts | 90° |
| 2026-05-06 18:23 | 54.12179 | 17.27170 | 14968 ft | 388 kts | 91° |
| 2026-05-06 18:24 | 54.12260 | 17.31759 | 14447 ft | 386 kts | 91° |
| 2026-05-06 18:24 | 54.12340 | 17.36326 | 13934 ft | 384 kts | 91° |
| 2026-05-06 18:24 | 54.12419 | 17.40832 | 13674 ft | 374 kts | 91° |
| 2026-05-06 18:24 | 54.12496 | 17.45192 | 13536 ft | 360 kts | 91° |
| 2026-05-06 18:25 | 54.12568 | 17.49340 | 13388 ft | 348 kts | 91° |
| 2026-05-06 18:25 | 54.12641 | 17.53417 | 13111 ft | 341 kts | 89° |
| 2026-05-06 18:25 | 54.12971 | 17.57415 | 12803 ft | 337 kts | 82° |
| 2026-05-06 18:25 | 54.13393 | 17.61339 | 12425 ft | 334 kts | 81° |
| 2026-05-06 18:26 | 54.13822 | 17.65214 | 12039 ft | 331 kts | 81° |
| 2026-05-06 18:26 | 54.14242 | 17.69054 | 11665 ft | 328 kts | 82° |
| 2026-05-06 18:26 | 54.14646 | 17.72826 | 11297 ft | 325 kts | 82° |
| 2026-05-06 18:26 | 54.15044 | 17.76611 | 10923 ft | 323 kts | 82° |
| 2026-05-06 18:27 | 54.15438 | 17.80388 | 10550 ft | 321 kts | 82° |
| 2026-05-06 18:27 | 54.15826 | 17.84127 | 10184 ft | 319 kts | 82° |
| 2026-05-06 18:27 | 54.16211 | 17.87845 | 9815 ft | 317 kts | 82° |
| 2026-05-06 18:27 | 54.16592 | 17.91539 | 9427 ft | 315 kts | 82° |
| 2026-05-06 18:28 | 54.16963 | 17.95159 | 9064 ft | 312 kts | 82° |
| 2026-05-06 18:28 | 54.17334 | 17.98780 | 8708 ft | 309 kts | 82° |
| 2026-05-06 18:28 | 54.17701 | 18.02377 | 8348 ft | 306 kts | 82° |
| 2026-05-06 18:28 | 54.18064 | 18.05937 | 7990 ft | 303 kts | 82° |
| 2026-05-06 18:29 | 54.18422 | 18.09468 | 7638 ft | 301 kts | 82° |
| 2026-05-06 18:29 | 54.18779 | 18.12975 | 7328 ft | 297 kts | 82° |
| 2026-05-06 18:29 | 54.19131 | 18.16445 | 7095 ft | 299 kts | 82° |
| 2026-05-06 18:29 | 54.19485 | 18.19963 | 6853 ft | 296 kts | 82° |
| 2026-05-06 18:30 | 54.19836 | 18.23410 | 6807 ft | 296 kts | 80° |
| 2026-05-06 18:30 | 54.20198 | 18.26846 | 6783 ft | 297 kts | 82° |
| 2026-05-06 18:30 | 54.20547 | 18.30323 | 6699 ft | 295 kts | 83° |
| 2026-05-06 18:30 | 54.20881 | 18.33795 | 6624 ft | 296 kts | 83° |
| 2026-05-06 18:31 | 54.21214 | 18.37253 | 6539 ft | 295 kts | 83° |
| 2026-05-06 18:31 | 54.21551 | 18.40710 | 6460 ft | 295 kts | 83° |
| 2026-05-06 18:31 | 54.21887 | 18.44169 | 6378 ft | 294 kts | 83° |
| 2026-05-06 18:31 | 54.22221 | 18.47575 | 6302 ft | 293 kts | 83° |
| 2026-05-06 18:32 | 54.22558 | 18.51012 | 6218 ft | 292 kts | 83° |
| 2026-05-06 18:32 | 54.22894 | 18.54455 | 6133 ft | 293 kts | 83° |
| 2026-05-06 18:32 | 54.23229 | 18.57896 | 6063 ft | 292 kts | 83° |
| 2026-05-06 18:32 | 54.23558 | 18.61274 | 6001 ft | 283 kts | 83° |
| 2026-05-06 18:33 | 54.23824 | 18.64507 | 5899 ft | 271 kts | 92° |
| 2026-05-06 18:33 | 54.23535 | 18.67574 | 5709 ft | 255 kts | 116° |
| 2026-05-06 18:33 | 54.22850 | 18.70301 | 5546 ft | 244 kts | 119° |
| 2026-05-06 18:33 | 54.22160 | 18.73008 | 5515 ft | 251 kts | 118° |
| 2026-05-06 18:34 | 54.21469 | 18.75738 | 5477 ft | 247 kts | 118° |
| 2026-05-06 18:34 | 54.20799 | 18.78404 | 5440 ft | 248 kts | 118° |
| 2026-05-06 18:34 | 54.20117 | 18.81114 | 5403 ft | 249 kts | 118° |
| 2026-05-06 18:34 | 54.19435 | 18.83829 | 5364 ft | 248 kts | 118° |
| 2026-05-06 18:35 | 54.18754 | 18.86537 | 5350 ft | 247 kts | 118° |
| 2026-05-06 18:35 | 54.18073 | 18.89239 | 5296 ft | 248 kts | 118° |
| 2026-05-06 18:35 | 54.17390 | 18.91945 | 5230 ft | 248 kts | 118° |
| 2026-05-06 18:35 | 54.16703 | 18.94661 | 5166 ft | 248 kts | 118° |
| 2026-05-06 18:36 | 54.16020 | 18.97363 | 5090 ft | 248 kts | 119° |
| 2026-05-06 18:36 | 54.15337 | 19.00065 | 5023 ft | 248 kts | 118° |
| 2026-05-06 18:36 | 54.14948 | 19.02935 | 4981 ft | 254 kts | 88° |
| 2026-05-06 18:36 | 54.15474 | 19.05731 | 4975 ft | 243 kts | 55° |
| 2026-05-06 18:37 | 54.16685 | 19.07556 | 4975 ft | 230 kts | 23° |
| 2026-05-06 18:37 | 54.17668 | 19.08258 | 4980 ft | 232 kts | 14° |
| 2026-05-06 18:37 | 54.19699 | 19.09314 | 4974 ft | 229 kts | 8° |
| 2026-05-06 18:37 | 54.21229 | 19.09232 | 4978 ft | 217 kts | 332° |
| 2026-05-06 18:38 | 54.22396 | 19.07807 | 4983 ft | 202 kts | 300° |
| 2026-05-06 18:38 | 54.23107 | 19.05784 | 4979 ft | 197 kts | 288° |
| 2026-05-06 18:38 | 54.23650 | 19.03681 | 5003 ft | 185 kts | 285° |
| 2026-05-06 18:38 | 54.24127 | 19.01757 | 4980 ft | 166 kts | 285° |
| 2026-05-06 18:39 | 54.24549 | 19.00078 | 4983 ft | 141 kts | 284° |
| 2026-05-06 18:39 | 54.24923 | 18.98553 | 4993 ft | 142 kts | 284° |
| 2026-05-06 18:39 | 54.25295 | 18.97026 | 4988 ft | 140 kts | 284° |
| 2026-05-06 18:40 | 54.26049 | 18.93989 | 4640 ft | 138 kts | 284° |
| 2026-05-06 18:40 | 54.26419 | 18.92492 | 4600 ft | 138 kts | 284° |
| 2026-05-06 18:40 | 54.26798 | 18.90957 | 4594 ft | 140 kts | 285° |
| 2026-05-06 18:40 | 54.27181 | 18.89417 | 4601 ft | 140 kts | 285° |
| 2026-05-06 18:41 | 54.27562 | 18.87879 | 4598 ft | 141 kts | 285° |
| 2026-05-06 18:41 | 54.27945 | 18.86335 | 4602 ft | 140 kts | 285° |
| 2026-05-06 18:41 | 54.28325 | 18.84801 | 4600 ft | 140 kts | 285° |
| 2026-05-06 18:41 | 54.28706 | 18.83260 | 4603 ft | 141 kts | 285° |
| 2026-05-06 18:42 | 54.29090 | 18.81711 | 4573 ft | 142 kts | 285° |
| 2026-05-06 18:42 | 54.29473 | 18.80164 | 4448 ft | 142 kts | 286° |
| 2026-05-06 18:42 | 54.29855 | 18.78620 | 4261 ft | 140 kts | 286° |
| 2026-05-06 18:42 | 54.30235 | 18.77087 | 4083 ft | 140 kts | 286° |
| 2026-05-06 18:43 | 54.30607 | 18.75580 | 3901 ft | 139 kts | 286° |
| 2026-05-06 18:43 | 54.30981 | 18.74065 | 3715 ft | 138 kts | 287° |
| 2026-05-06 18:43 | 54.31360 | 18.72536 | 3536 ft | 139 kts | 287° |
| 2026-05-06 18:43 | 54.31739 | 18.71003 | 3348 ft | 140 kts | 288° |
| 2026-05-06 18:44 | 54.32115 | 18.69479 | 3160 ft | 139 kts | 289° |
| 2026-05-06 18:44 | 54.32490 | 18.67962 | 2975 ft | 140 kts | 291° |
| 2026-05-06 18:44 | 54.32873 | 18.66413 | 2779 ft | 141 kts | 292° |
| 2026-05-06 18:44 | 54.33255 | 18.64866 | 2586 ft | 141 kts | 294° |
| 2026-05-06 18:45 | 54.33634 | 18.63334 | 2395 ft | 142 kts | 296° |
| 2026-05-06 18:45 | 54.34021 | 18.61764 | 2193 ft | 142 kts | 297° |
| 2026-05-06 18:45 | 54.34408 | 18.60201 | 2001 ft | 143 kts | 299° |
| 2026-05-06 18:45 | 54.34663 | 18.59166 | 1868 ft | 143 kts | 300° |
| 2026-05-06 18:46 | 54.35177 | 18.57085 | 1604 ft | 142 kts | 300° |
| 2026-05-06 18:46 | 54.35432 | 18.56051 | 1464 ft | 142 kts | 300° |
| 2026-05-06 18:46 | 54.35809 | 18.54517 | 1249 ft | 138 kts | 300° |
| 2026-05-06 18:46 | 54.36183 | 18.53007 | 1044 ft | 141 kts | 300° |
| 2026-05-06 18:47 | 54.36569 | 18.51426 | 828 ft | 139 kts | 300° |
| 2026-05-06 18:47 | 54.36946 | 18.49912 | 643 ft | 137 kts | 300° |
| 2026-05-06 18:47 | 54.37310 | 18.48443 | 489 ft | 127 kts | 295° |
| 2026-05-06 18:47 | 54.37555 | 18.47509 | 480 ft | 54 kts | 290° |
| 2026-05-06 18:48 | 54.37692 | 18.46945 | 470 ft | 48 kts | 309° |
| 2026-05-06 18:48 | 54.37870 | 18.46684 | 470 ft | 18 kts | 322° |
| 2026-05-06 18:48 | 54.37957 | 18.46535 | 470 ft | 16 kts | 286° |
| 2026-05-06 18:48 | 54.38024 | 18.46439 | 470 ft | 0 kts | 6° |
| 2026-05-06 18:49 | 54.38033 | 18.46464 | 470 ft | 6 kts | 65° |
| 2026-05-06 18:49 | 54.38061 | 18.46532 | 471 ft | 7 kts | 42° |
| 2026-05-06 18:49 | 54.38086 | 18.46562 | 471 ft | 3 kts | 56° |
| 2026-05-06 18:49 | 54.38111 | 18.46610 | 471 ft | 0 kts | 31° |